Time;durP1;ratioP1;P1;durP2;ratioP2;P2;SDS_P1;SDS_P2;PMS_P1;PMS_P2;Temp;Humidity;BMP_temperature;BMP_pressure;BME280_temperature;BME280_humidity;BME280_pressure;Samples;Min_cycle;Max_cycle;Signal;HPM_P1;HPM_P2
2021/01/24 00:01:03;;;;;;;2.77;1.80;;;;;;;4.72;100.00;95791.63;5053706;28;20239;-74
2021/01/24 00:03:30;;;;;;;2.30;1.73;;;;;;;4.60;100.00;95801.31;5052778;28;20200;-73
2021/01/24 00:05:56;;;;;;;2.40;1.50;;;;;;;4.74;100.00;95800.19;5047094;28;20210;-74
2021/01/24 00:08:23;;;;;;;2.00;1.40;;;;;;;4.72;100.00;95802.22;5056199;28;20205;-75
2021/01/24 00:10:50;;;;;;;1.70;1.37;;;;;;;4.58;100.00;95811.28;5054534;28;20203;-74
2021/01/24 00:13:17;;;;;;;2.27;1.40;;;;;;;4.60;100.00;95811.88;5054128;28;20209;-75
2021/01/24 00:15:43;;;;;;;1.47;1.20;;;;;;;4.58;100.00;95813.13;5053307;28;20284;-74
2021/01/24 00:18:11;;;;;;;1.43;1.23;;;;;;;4.54;100.00;95812.75;5053142;28;20225;-74
2021/01/24 00:20:38;;;;;;;2.10;1.67;;;;;;;4.55;100.00;95813.53;5053216;28;20214;-77
2021/01/24 00:23:04;;;;;;;1.50;1.30;;;;;;;4.55;100.00;95808.25;5052647;28;20229;-74
2021/01/24 00:25:31;;;;;;;1.70;1.20;;;;;;;4.49;100.00;95812.59;5052557;28;20709;-74
2021/01/24 00:27:58;;;;;;;1.60;1.03;;;;;;;4.45;100.00;95810.59;5052359;28;20686;-74
2021/01/24 00:30:25;;;;;;;1.20;0.90;;;;;;;4.45;100.00;95806.13;5053088;28;20311;-75
2021/01/24 00:32:52;;;;;;;1.13;0.90;;;;;;;4.41;100.00;95809.41;5045123;28;20209;-74
2021/01/24 00:35:19;;;;;;;1.73;1.20;;;;;;;4.47;100.00;95813.84;5052946;28;20661;-74
2021/01/24 00:37:46;;;;;;;0.67;0.63;;;;;;;4.49;100.00;95811.78;5052232;28;20213;-74
2021/01/24 00:40:13;;;;;;;1.17;1.07;;;;;;;4.48;100.00;95816.25;5052402;28;20696;-74
2021/01/24 00:42:40;;;;;;;1.10;1.00;;;;;;;4.49;100.00;95817.06;5055754;28;20203;-74
2021/01/24 00:45:08;;;;;;;1.33;1.10;;;;;;;4.54;100.00;95825.97;5052965;28;20213;-74
2021/01/24 00:47:36;;;;;;;1.50;1.23;;;;;;;4.46;100.00;95826.22;5051779;28;20206;-73
2021/01/24 00:50:03;;;;;;;1.00;0.90;;;;;;;4.39;100.00;95829.94;5052794;28;20214;-73
2021/01/24 00:52:30;;;;;;;0.97;0.87;;;;;;;4.41;100.00;95828.69;5051843;28;20203;-75
2021/01/24 00:54:57;;;;;;;1.43;1.10;;;;;;;4.41;100.00;95825.25;5047708;28;20662;-73
2021/01/24 00:57:24;;;;;;;2.47;1.20;;;;;;;4.22;100.00;95823.59;5052197;28;20206;-73
2021/01/24 00:59:52;;;;;;;1.53;0.97;;;;;;;4.35;100.00;95826.94;5052439;28;20269;-73
2021/01/24 01:02:19;;;;;;;1.50;1.00;;;;;;;4.29;100.00;95833.06;5043120;28;20606;-73
2021/01/24 01:04:45;;;;;;;1.30;0.80;;;;;;;4.30;100.00;95831.22;5040794;28;20205;-73
2021/01/24 01:07:12;;;;;;;1.47;1.17;;;;;;;4.30;100.00;95837.31;5044837;28;20210;-73
2021/01/24 01:09:40;;;;;;;1.57;1.03;;;;;;;4.25;100.00;95842.44;5050655;28;20218;-73
2021/01/24 01:12:07;;;;;;;1.00;0.90;;;;;;;4.35;100.00;95834.03;5046229;28;20678;-73
2021/01/24 01:14:34;;;;;;;1.10;0.87;;;;;;;4.34;100.00;95837.69;5051794;28;20198;-73
2021/01/24 01:17:01;;;;;;;1.40;1.00;;;;;;;4.18;100.00;95835.59;5052286;28;20201;-73
2021/01/24 01:19:27;;;;;;;1.43;0.90;;;;;;;4.24;100.00;95837.38;5047255;28;20229;-73
2021/01/24 01:21:54;;;;;;;1.10;0.80;;;;;;;4.19;100.00;95835.38;5049888;28;20269;-73
2021/01/24 01:24:21;;;;;;;1.40;0.90;;;;;;;4.28;100.00;95834.09;5052674;28;20205;-73
2021/01/24 01:26:49;;;;;;;1.87;0.80;;;;;;;4.12;100.00;95833.81;5052223;28;20259;-73
2021/01/24 01:29:15;;;;;;;2.03;0.80;;;;;;;4.15;100.00;95838.63;5044772;28;20634;-72
2021/01/24 01:31:42;;;;;;;1.53;1.20;;;;;;;4.18;100.00;95828.50;5044491;28;20210;-73
2021/01/24 01:34:09;;;;;;;0.97;0.97;;;;;;;4.13;100.00;95830.13;5053098;28;20206;-74
2021/01/24 01:36:36;;;;;;;1.33;1.00;;;;;;;4.12;100.00;95826.69;5055269;28;20201;-74
2021/01/24 01:39:04;;;;;;;1.40;1.13;;;;;;;4.07;100.00;95817.81;5046221;28;20222;-73
2021/01/24 01:41:31;;;;;;;1.37;0.87;;;;;;;4.01;100.00;95827.38;5051237;28;20205;-74
2021/01/24 01:43:59;;;;;;;1.20;1.00;;;;;;;4.00;100.00;95832.84;5052116;28;20205;-73
2021/01/24 01:46:28;;;;;;;1.17;0.93;;;;;;;3.96;100.00;95834.31;5052255;28;20205;-73
2021/01/24 01:48:55;;;;;;;2.03;1.37;;;;;;;3.98;100.00;95829.63;5051770;28;20210;-73
2021/01/24 01:51:22;;;;;;;1.40;1.10;;;;;;;3.98;100.00;95833.09;5052252;28;20208;-73
2021/01/24 01:53:49;;;;;;;2.23;1.40;;;;;;;4.09;100.00;95831.59;5054996;28;20207;-73
2021/01/24 01:56:16;;;;;;;2.67;1.60;;;;;;;3.98;100.00;95832.28;5058447;28;20223;-75
2021/01/24 01:58:43;;;;;;;1.47;1.10;;;;;;;4.10;100.00;95838.47;5053771;28;20228;-73
2021/01/24 02:01:15;;;;;;;3.13;1.50;;;;;;;4.07;100.00;95831.78;5054279;28;20197;-74
2021/01/24 02:03:50;;;;;;;1.30;1.20;;;;;;;4.10;100.00;95838.47;5054575;28;20279;-73
2021/01/24 02:06:21;;;;;;;1.43;1.20;;;;;;;4.16;100.00;95825.25;5054566;28;20200;-73
2021/01/24 02:08:54;;;;;;;5.10;1.80;;;;;;;3.95;100.00;95841.41;5046183;28;20209;-73
2021/01/24 02:11:26;;;;;;;1.77;1.20;;;;;;;4.09;100.00;95852.69;5055152;28;20227;-73
2021/01/24 02:13:58;;;;;;;1.97;0.90;;;;;;;4.03;100.00;95858.81;5048110;28;20194;-73
2021/01/24 02:16:28;;;;;;;1.07;0.87;;;;;;;4.08;100.00;95859.81;5054386;28;20202;-73
2021/01/24 02:18:56;;;;;;;0.67;0.60;;;;;;;4.10;100.00;95883.34;5054708;28;20225;-73
2021/01/24 02:21:29;;;;;;;1.20;0.57;;;;;;;4.05;100.00;95881.34;5051805;28;20236;-73
2021/01/24 02:23:58;;;;;;;1.20;0.53;;;;;;;4.28;100.00;95899.28;5048016;28;20198;-73
2021/01/24 02:26:37;;;;;;;0.53;0.53;;;;;;;4.25;100.00;95899.69;5054266;28;20206;-73
2021/01/24 02:29:17;;;;;;;0.40;0.40;;;;;;;4.04;100.00;95911.41;5054922;28;20249;-73
2021/01/24 02:31:45;;;;;;;0.30;0.30;;;;;;;4.12;100.00;95912.97;5054748;28;20210;-73
2021/01/24 02:34:13;;;;;;;0.50;0.50;;;;;;;4.12;100.00;95918.25;5054449;28;20218;-74
2021/01/24 02:36:41;;;;;;;0.53;0.40;;;;;;;4.11;100.00;95928.00;5055236;28;20201;-73
2021/01/24 02:39:08;;;;;;;0.20;0.20;;;;;;;4.08;100.00;95936.34;5054986;28;20224;-73
2021/01/24 02:41:35;;;;;;;0.10;0.10;;;;;;;4.02;100.00;95950.34;5055042;28;20204;-74
2021/01/24 02:44:03;;;;;;;0.20;0.20;;;;;;;3.89;100.00;95953.06;5052928;28;20283;-73
2021/01/24 02:46:31;;;;;;;1.20;0.20;;;;;;;3.94;100.00;95960.34;5047024;28;20652;-73
2021/01/24 02:49:00;;;;;;;0.10;0.10;;;;;;;4.03;100.00;95961.75;5054179;28;20268;-73
2021/01/24 02:51:27;;;;;;;0.20;0.20;;;;;;;4.01;100.00;95967.22;5051714;28;20203;-73
2021/01/24 02:53:55;;;;;;;0.60;0.60;;;;;;;3.90;100.00;95978.44;5052787;28;20376;-73
2021/01/24 02:56:22;;;;;;;0.20;0.20;;;;;;;3.82;100.00;95981.28;5052395;28;20203;-72
2021/01/24 02:58:49;;;;;;;0.30;0.30;;;;;;;3.81;100.00;95979.69;5052025;28;20230;-73
2021/01/24 03:01:16;;;;;;;0.33;0.30;;;;;;;3.96;100.00;95985.50;5050148;28;20201;-73
2021/01/24 03:03:43;;;;;;;0.30;0.30;;;;;;;3.84;100.00;95991.63;5053610;28;20232;-73
2021/01/24 03:06:11;;;;;;;0.30;0.30;;;;;;;3.93;100.00;95979.84;5050414;28;20209;-73
2021/01/24 03:08:38;;;;;;;0.57;0.50;;;;;;;3.84;100.00;95999.56;5056423;28;20283;-73
2021/01/24 03:11:06;;;;;;;0.70;0.60;;;;;;;3.81;100.00;96006.06;5055414;28;20209;-74
2021/01/24 03:13:40;;;;;;;0.80;0.70;;;;;;;3.78;100.00;96022.31;5046927;28;20249;-73
2021/01/24 03:16:07;;;;;;;0.60;0.50;;;;;;;3.93;100.00;96032.59;5053703;28;20289;-73
2021/01/24 03:18:37;;;;;;;0.60;0.50;;;;;;;4.01;100.00;96035.03;5053003;28;20233;-73
2021/01/24 03:21:05;;;;;;;0.87;0.70;;;;;;;4.00;100.00;96042.13;5052909;28;20209;-73
2021/01/24 03:23:33;;;;;;;0.90;0.70;;;;;;;4.02;100.00;96063.03;5052142;28;20343;-74
2021/01/24 03:26:00;;;;;;;2.17;0.87;;;;;;;3.86;100.00;96068.75;5048681;28;20202;-73
2021/01/24 03:28:27;;;;;;;2.53;0.90;;;;;;;3.96;100.00;96069.16;5053973;28;20206;-73
2021/01/24 03:30:54;;;;;;;0.77;0.70;;;;;;;3.92;100.00;96076.63;5047091;28;20198;-73
2021/01/24 03:33:21;;;;;;;0.97;0.83;;;;;;;3.78;100.00;96090.88;5053499;28;20201;-73
2021/01/24 03:35:48;;;;;;;1.73;1.13;;;;;;;3.70;100.00;96093.72;5047011;28;20201;-73
2021/01/24 03:38:15;;;;;;;1.50;1.00;;;;;;;3.70;100.00;96100.81;5053496;28;20259;-73
2021/01/24 03:40:42;;;;;;;2.33;1.40;;;;;;;3.68;100.00;96105.50;5052684;28;20680;-73
2021/01/24 03:43:09;;;;;;;1.33;1.13;;;;;;;3.56;100.00;96102.66;5041759;28;20650;-73
2021/01/24 03:45:36;;;;;;;1.90;1.00;;;;;;;3.46;100.00;96107.53;5052917;28;20662;-73
2021/01/24 03:48:03;;;;;;;1.77;1.00;;;;;;;3.23;100.00;96119.47;5053526;28;20259;-74
2021/01/24 03:50:30;;;;;;;1.47;1.20;;;;;;;3.34;100.00;96119.72;5053437;28;20311;-73
2021/01/24 03:52:56;;;;;;;1.60;1.00;;;;;;;3.35;100.00;96123.16;5053247;28;20663;-73
2021/01/24 03:55:23;;;;;;;1.90;1.27;;;;;;;3.14;100.00;96118.88;5053685;28;20201;-73
2021/01/24 03:57:51;;;;;;;2.17;1.40;;;;;;;3.29;100.00;96127.41;5048078;28;20210;-73
2021/01/24 04:00:19;;;;;;;1.47;1.07;;;;;;;3.10;100.00;96122.91;5053506;28;20225;-73
2021/01/24 04:02:45;;;;;;;3.43;1.30;;;;;;;3.07;100.00;96135.69;5052746;28;20675;-73
2021/01/24 04:05:13;;;;;;;2.10;1.40;;;;;;;3.15;100.00;96146.06;5053759;28;20202;-73
2021/01/24 04:07:39;;;;;;;1.93;1.40;;;;;;;3.22;100.00;96150.31;5053563;28;20211;-72
2021/01/24 04:10:08;;;;;;;4.13;1.80;;;;;;;3.40;100.00;96153.16;5053602;28;20213;-72
2021/01/24 04:12:35;;;;;;;2.73;1.40;;;;;;;3.22;100.00;96154.75;5053236;28;20220;-72
2021/01/24 04:15:03;;;;;;;2.37;1.43;;;;;;;3.18;100.00;96157.00;5053583;28;20252;-72
2021/01/24 04:17:30;;;;;;;4.17;1.60;;;;;;;3.33;100.00;96165.53;5057660;28;20204;-74
2021/01/24 04:19:56;;;;;;;3.10;1.40;;;;;;;3.33;100.00;96165.53;5054959;28;20312;-73
2021/01/24 04:22:23;;;;;;;1.67;1.00;;;;;;;3.38;100.00;96157.84;5050103;28;20209;-74
2021/01/24 04:24:50;;;;;;;2.10;1.40;;;;;;;3.06;100.00;96166.47;5054913;28;20202;-73
2021/01/24 04:27:17;;;;;;;2.90;1.57;;;;;;;3.02;100.00;96161.81;5048606;28;20662;-73
2021/01/24 04:29:44;;;;;;;2.37;1.10;;;;;;;2.87;100.00;96166.44;5053521;28;20222;-73
2021/01/24 04:32:11;;;;;;;1.87;1.27;;;;;;;2.97;100.00;96172.13;5054501;28;20666;-74
2021/01/24 04:34:38;;;;;;;2.90;1.57;;;;;;;2.89;100.00;96170.50;5056700;28;20205;-74
2021/01/24 04:37:05;;;;;;;3.23;1.37;;;;;;;2.76;100.00;96178.38;5051395;28;20209;-74
2021/01/24 04:39:32;;;;;;;2.97;1.63;;;;;;;2.76;100.00;96183.63;5048903;28;20593;-73
2021/01/24 04:41:59;;;;;;;2.53;1.40;;;;;;;2.72;100.00;96182.41;5052703;28;20201;-74
2021/01/24 04:44:25;;;;;;;1.90;1.30;;;;;;;2.60;100.00;96191.84;5053128;28;20251;-75
2021/01/24 04:46:54;;;;;;;2.13;1.50;;;;;;;2.76;100.00;96195.97;5052566;28;20736;-73
2021/01/24 04:49:22;;;;;;;2.93;1.37;;;;;;;2.72;100.00;96200.00;5052371;28;20213;-74
2021/01/24 04:51:49;;;;;;;1.90;1.30;;;;;;;2.59;100.00;96210.50;5048308;28;20693;-73
2021/01/24 04:54:16;;;;;;;2.13;1.20;;;;;;;2.77;100.00;96206.31;5052276;28;20223;-73
2021/01/24 04:56:43;;;;;;;2.77;1.20;;;;;;;2.65;100.00;96207.88;5051195;28;20206;-73
2021/01/24 04:59:09;;;;;;;2.93;1.10;;;;;;;2.73;100.00;96207.72;5052449;28;20225;-73
2021/01/24 05:01:39;;;;;;;2.83;1.67;;;;;;;2.72;100.00;96208.72;5052355;28;20201;-74
2021/01/24 05:04:06;;;;;;;1.50;1.17;;;;;;;2.75;100.00;96221.47;5052269;28;20202;-73
2021/01/24 05:06:34;;;;;;;3.07;1.10;;;;;;;2.71;100.00;96219.44;5052350;28;20205;-73
2021/01/24 05:09:01;;;;;;;2.73;1.30;;;;;;;2.80;100.00;96215.66;5052112;28;20697;-74
2021/01/24 05:11:28;;;;;;;2.23;1.20;;;;;;;2.78;99.63;96218.47;5044356;28;20202;-73
2021/01/24 05:14:14;;;;;;;3.83;1.30;;;;;;;2.88;99.97;96221.56;5052099;28;20212;-73
2021/01/24 05:16:41;;;;;;;2.60;1.03;;;;;;;2.88;100.00;96215.47;5051491;28;20690;-74
2021/01/24 05:19:09;;;;;;;2.10;1.43;;;;;;;2.76;100.00;96224.94;5051259;28;20251;-73
2021/01/24 05:21:37;;;;;;;3.03;1.00;;;;;;;2.72;100.00;96224.53;5051964;28;20201;-73
2021/01/24 05:24:07;;;;;;;1.07;0.97;;;;;;;2.68;100.00;96236.44;5051964;28;20569;-73
2021/01/24 05:26:35;;;;;;;1.73;1.17;;;;;;;2.70;100.00;96225.72;5051661;28;20193;-73
2021/01/24 05:29:02;;;;;;;2.37;1.40;;;;;;;2.61;100.00;96235.63;5051925;28;20213;-73
2021/01/24 05:31:29;;;;;;;3.33;1.73;;;;;;;2.57;100.00;96236.19;5050192;28;20216;-74
2021/01/24 05:33:57;;;;;;;4.13;1.43;;;;;;;2.59;100.00;96244.72;5051620;28;20267;-73
2021/01/24 05:36:24;;;;;;;2.43;1.23;;;;;;;2.53;100.00;96240.22;5049354;28;20548;-74
2021/01/24 05:38:53;;;;;;;1.10;0.90;;;;;;;2.67;100.00;96250.63;5045172;28;20234;-74
2021/01/24 05:41:20;;;;;;;2.53;1.30;;;;;;;2.60;100.00;96248.97;5046035;28;20205;-74
2021/01/24 05:43:48;;;;;;;1.40;1.20;;;;;;;2.83;100.00;96249.47;5043750;28;20209;-74
2021/01/24 05:46:14;;;;;;;1.83;1.10;;;;;;;2.53;100.00;96256.00;5049653;28;20547;-74
2021/01/24 05:48:51;;;;;;;1.73;1.40;;;;;;;2.53;100.00;96253.38;5046942;28;20235;-74
2021/01/24 05:51:18;;;;;;;2.57;1.77;;;;;;;2.32;100.00;96256.06;5045268;28;20201;-74
2021/01/24 05:53:46;;;;;;;2.07;1.13;;;;;;;2.20;100.00;96257.63;5043564;28;20206;-74
2021/01/24 05:56:17;;;;;;;2.40;1.30;;;;;;;2.25;100.00;96256.03;5044638;28;20622;-74
2021/01/24 05:58:44;;;;;;;2.10;1.50;;;;;;;2.31;100.00;96267.63;5038619;28;20232;-74
2021/01/24 06:01:11;;;;;;;5.83;1.30;;;;;;;2.40;100.00;96271.72;5044010;28;20312;-74
2021/01/24 06:03:38;;;;;;;2.50;1.20;;;;;;;2.46;100.00;96278.84;5043227;28;20296;-74
2021/01/24 06:06:05;;;;;;;2.93;1.50;;;;;;;2.60;100.00;96291.91;5049579;28;20209;-74
2021/01/24 06:08:32;;;;;;;4.73;1.50;;;;;;;2.49;100.00;96289.81;5044513;28;20232;-74
2021/01/24 06:11:00;;;;;;;2.93;1.30;;;;;;;2.61;100.00;96309.34;5045387;28;20202;-75
2021/01/24 06:13:28;;;;;;;2.90;1.70;;;;;;;2.61;100.00;96305.88;5046674;28;20228;-74
2021/01/24 06:15:58;;;;;;;2.60;1.67;;;;;;;2.45;100.00;96304.34;5044270;28;20202;-74
2021/01/24 06:18:32;;;;;;;5.17;1.40;;;;;;;2.31;100.00;96309.72;5044086;28;20210;-74
2021/01/24 06:21:02;;;;;;;3.00;1.67;;;;;;;2.23;100.00;96323.00;5046911;28;20200;-74
2021/01/24 06:23:33;;;;;;;4.20;1.70;;;;;;;2.41;100.00;96321.56;5046972;28;20201;-74
2021/01/24 06:26:05;;;;;;;4.60;1.57;;;;;;;2.32;100.00;96322.69;5048712;28;20263;-74
2021/01/24 06:28:35;;;;;;;2.40;1.40;;;;;;;2.40;100.00;96321.75;5042461;28;20213;-74
2021/01/24 06:31:02;;;;;;;1.97;1.30;;;;;;;2.28;100.00;96320.63;5047468;28;20685;-74
2021/01/24 06:33:29;;;;;;;2.27;1.60;;;;;;;2.48;100.00;96332.09;5046843;28;20202;-74
2021/01/24 06:35:58;;;;;;;2.40;1.40;;;;;;;2.34;100.00;96331.19;5045006;28;20217;-75
2021/01/24 06:38:31;;;;;;;5.47;1.80;;;;;;;2.49;100.00;96326.66;5043107;28;20202;-75
2021/01/24 06:40:58;;;;;;;3.30;1.50;;;;;;;2.36;100.00;96329.22;5048782;28;20271;-74
2021/01/24 06:43:37;;;;;;;4.37;1.70;;;;;;;2.19;100.00;96338.34;5046120;28;20199;-74
2021/01/24 06:46:04;;;;;;;3.13;1.43;;;;;;;2.33;100.00;96329.56;5052874;28;20201;-74
2021/01/24 06:48:45;;;;;;;3.57;1.43;;;;;;;2.28;100.00;96333.78;5045355;28;20248;-75
2021/01/24 06:51:36;;;;;;;4.03;1.50;;;;;;;2.37;100.00;96332.63;5049218;28;20228;-74
2021/01/24 06:54:04;;;;;;;5.20;1.30;;;;;;;2.32;100.00;96338.47;5053638;28;20567;-74
2021/01/24 06:56:38;;;;;;;3.40;1.83;;;;;;;2.16;100.00;96340.56;5053218;28;20243;-76
2021/01/24 06:59:06;;;;;;;1.97;1.00;;;;;;;2.05;100.00;96341.06;5050545;28;20297;-73
2021/01/24 07:01:34;;;;;;;2.03;1.30;;;;;;;2.09;100.00;96353.66;5054574;28;20201;-73
2021/01/24 07:04:30;;;;;;;2.50;1.40;;;;;;;2.17;100.00;96357.97;5052066;28;20209;-73
2021/01/24 07:06:58;;;;;;;1.57;1.10;;;;;;;2.31;100.00;96360.53;5051765;28;20197;-73
2021/01/24 07:09:43;;;;;;;3.73;1.40;;;;;;;2.37;100.00;96367.69;5054566;28;20217;-74
2021/01/24 07:12:10;;;;;;;3.50;1.37;;;;;;;2.33;100.00;96371.69;5046852;28;20197;-74
2021/01/24 07:14:48;;;;;;;3.43;1.20;;;;;;;2.52;100.00;96375.47;5056766;28;20197;-74
2021/01/24 07:17:17;;;;;;;1.77;1.10;;;;;;;2.36;100.00;96376.59;5055596;28;20212;-73
2021/01/24 07:19:47;;;;;;;4.67;1.70;;;;;;;2.41;100.00;96368.09;5063223;28;20237;-76
2021/01/24 07:22:15;;;;;;;1.77;1.40;;;;;;;2.28;100.00;96373.25;5071265;28;20213;-75
2021/01/24 07:24:45;;;;;;;1.97;1.33;;;;;;;2.23;100.00;96376.44;5068191;28;20216;-74
2021/01/24 07:27:13;;;;;;;2.17;1.20;;;;;;;2.25;100.00;96379.69;5066856;28;20213;-74
2021/01/24 07:29:40;;;;;;;2.93;1.53;;;;;;;2.21;100.00;96378.47;5059690;28;20217;-74
2021/01/24 07:32:09;;;;;;;2.03;1.20;;;;;;;2.20;100.00;96383.91;5056075;28;20266;-75
2021/01/24 07:34:36;;;;;;;2.20;1.33;;;;;;;2.31;100.00;96376.34;5055112;28;20194;-73
2021/01/24 07:37:04;;;;;;;5.87;1.70;;;;;;;2.28;100.00;96374.06;5054040;28;20208;-74
2021/01/24 07:39:32;;;;;;;2.43;1.40;;;;;;;2.24;100.00;96375.44;5053952;28;20229;-74
2021/01/24 07:41:59;;;;;;;4.33;1.70;;;;;;;2.24;100.00;96377.28;5053977;28;20201;-74
2021/01/24 07:44:26;;;;;;;3.03;1.33;;;;;;;2.21;100.00;96385.53;5053679;28;20205;-74
2021/01/24 07:46:53;;;;;;;1.80;1.07;;;;;;;2.06;100.00;96390.88;5053799;28;20205;-75
2021/01/24 07:49:20;;;;;;;3.10;1.60;;;;;;;2.33;100.00;96391.91;5053815;28;20263;-74
2021/01/24 07:51:47;;;;;;;2.07;1.20;;;;;;;2.41;100.00;96391.78;5046486;28;20220;-74
2021/01/24 07:54:15;;;;;;;2.50;1.33;;;;;;;2.38;100.00;96400.06;5052636;28;20210;-74
2021/01/24 07:56:43;;;;;;;2.77;0.90;;;;;;;2.46;100.00;96400.75;5047447;28;20199;-73
2021/01/24 07:59:09;;;;;;;2.97;1.63;;;;;;;2.51;100.00;96393.09;5048606;28;20229;-75
2021/01/24 08:01:37;;;;;;;2.10;1.50;;;;;;;2.45;100.00;96401.75;5047191;28;20552;-73
2021/01/24 08:04:05;;;;;;;4.63;0.97;;;;;;;2.51;100.00;96398.38;5053467;28;20204;-74
2021/01/24 08:06:33;;;;;;;1.97;1.20;;;;;;;2.59;100.00;96397.41;5054474;28;20201;-74
2021/01/24 08:09:00;;;;;;;4.13;1.17;;;;;;;2.53;100.00;96395.53;5055105;28;20214;-73
2021/01/24 08:11:29;;;;;;;2.00;1.03;;;;;;;2.53;100.00;96398.97;5057610;28;20599;-75
2021/01/24 08:13:56;;;;;;;2.20;1.30;;;;;;;2.65;100.00;96401.91;5049354;28;20213;-75
2021/01/24 08:16:26;;;;;;;1.30;1.00;;;;;;;2.66;100.00;96409.63;5051384;28;20205;-74
2021/01/24 08:18:55;;;;;;;1.60;1.30;;;;;;;2.66;100.00;96407.00;5051673;28;20240;-74
2021/01/24 08:21:23;;;;;;;2.20;1.30;;;;;;;2.53;100.00;96411.31;5053507;28;20202;-74
2021/01/24 08:23:51;;;;;;;1.77;1.20;;;;;;;2.60;100.00;96410.38;5044687;28;20658;-77
2021/01/24 08:26:18;;;;;;;1.47;1.17;;;;;;;2.58;100.00;96407.13;5049221;28;20209;-80
2021/01/24 08:28:47;;;;;;;2.70;1.00;;;;;;;2.61;100.00;96411.19;5055456;28;20329;-75
2021/01/24 08:31:18;;;;;;;1.50;1.33;;;;;;;2.66;100.00;96412.28;5053567;28;20201;-75
2021/01/24 08:33:46;;;;;;;1.80;1.10;;;;;;;2.78;100.00;96415.16;5053127;28;20674;-75
2021/01/24 08:36:15;;;;;;;1.30;1.07;;;;;;;2.71;100.00;96419.59;5052968;28;20554;-73
2021/01/24 08:38:42;;;;;;;2.93;1.30;;;;;;;2.87;100.00;96433.28;5052920;28;20260;-76
2021/01/24 08:41:10;;;;;;;2.30;1.00;;;;;;;2.93;100.00;96435.16;5050911;28;20569;-74
2021/01/24 08:43:38;;;;;;;1.47;1.00;;;;;;;2.99;100.00;96428.28;5051195;28;21746;-81
2021/01/24 08:46:19;;;;;;;5.93;1.43;;;;;;;3.33;98.57;96434.41;5056220;28;20195;-75
2021/01/24 08:48:57;;;;;;;3.10;1.40;;;;;;;3.72;95.94;96445.13;5052729;28;20221;-75
2021/01/24 08:51:24;;;;;;;1.77;1.30;;;;;;;3.74;92.59;96440.47;5052778;28;20486;-81
2021/01/24 08:53:51;;;;;;;4.03;1.33;;;;;;;4.00;95.01;96437.94;5051847;28;20647;-77
2021/01/24 08:56:22;;;;;;;1.40;1.00;;;;;;;3.81;91.73;96454.50;5045640;28;20231;-75
2021/01/24 08:58:48;;;;;;;3.97;1.20;;;;;;;3.76;93.04;96443.72;5053394;28;20589;-76
2021/01/24 09:01:15;;;;;;;1.70;1.00;;;;;;;3.60;93.36;96457.25;5049400;28;20207;-74
2021/01/24 09:03:42;;;;;;;3.17;0.90;;;;;;;4.01;95.31;96455.41;5051290;28;20202;-72
2021/01/24 09:06:15;;;;;;;2.90;1.00;;;;;;;3.96;91.53;96465.72;5045611;28;20209;-74
2021/01/24 09:08:46;;;;;;;0.83;0.77;;;;;;;3.90;91.77;96471.81;5048636;28;20218;-74
2021/01/24 09:11:13;;;;;;;2.73;1.13;;;;;;;3.90;94.65;96458.59;5049895;28;20197;-72
2021/01/24 09:13:41;;;;;;;2.17;1.00;;;;;;;4.15;97.86;96475.53;5051390;28;20210;-74
2021/01/24 09:16:07;;;;;;;1.60;0.93;;;;;;;4.15;99.16;96467.63;5049779;28;20202;-75
2021/01/24 09:18:34;;;;;;;2.70;1.10;;;;;;;4.17;100.00;96483.28;5049664;28;20294;-75
2021/01/24 09:21:02;;;;;;;1.83;1.10;;;;;;;4.16;99.72;96484.28;5051150;28;20222;-74
2021/01/24 09:23:29;;;;;;;2.30;1.10;;;;;;;3.99;100.00;96491.75;5049319;28;20264;-77
2021/01/24 09:25:56;;;;;;;1.77;1.07;;;;;;;4.11;100.00;96498.06;5047113;28;20198;-76
2021/01/24 09:28:23;;;;;;;2.30;1.00;;;;;;;3.84;100.00;96506.88;5051293;28;20670;-76
2021/01/24 09:30:53;;;;;;;1.53;1.20;;;;;;;3.94;100.00;96509.16;5054097;28;20207;-71
2021/01/24 09:33:20;;;;;;;3.63;1.90;;;;;;;3.37;100.00;96503.38;5047050;28;20203;-73
2021/01/24 09:35:47;;;;;;;2.67;1.40;;;;;;;3.41;100.00;96509.88;5051283;28;20209;-74
2021/01/24 09:38:13;;;;;;;1.97;1.03;;;;;;;3.22;100.00;96505.28;5047833;28;20700;-74
2021/01/24 09:40:40;;;;;;;2.53;1.20;;;;;;;3.26;100.00;96507.34;5051064;28;20233;-73
2021/01/24 09:43:07;;;;;;;2.33;1.23;;;;;;;3.58;100.00;96504.13;5051271;28;20617;-76
2021/01/24 09:45:34;;;;;;;4.20;1.60;;;;;;;3.04;100.00;96508.41;5051864;28;20206;-76
2021/01/24 09:48:02;;;;;;;2.23;1.23;;;;;;;3.37;100.00;96498.91;5052078;28;20228;-76
2021/01/24 09:50:29;;;;;;;3.73;1.57;;;;;;;3.39;100.00;96502.16;5050385;28;20218;-77
2021/01/24 09:52:56;;;;;;;3.40;1.27;;;;;;;3.70;100.00;96502.53;5043794;28;20199;-74
2021/01/24 09:55:23;;;;;;;3.13;1.40;;;;;;;3.63;100.00;96500.88;5047936;28;20229;-78
2021/01/24 09:57:50;;;;;;;3.07;1.50;;;;;;;3.61;100.00;96508.97;5051027;28;20206;-75
2021/01/24 10:00:18;;;;;;;3.43;1.60;;;;;;;4.25;100.00;96510.31;5045175;28;20264;-76
2021/01/24 10:02:45;;;;;;;2.17;1.53;;;;;;;4.00;100.00;96511.00;5050646;28;20613;-75
2021/01/24 10:05:14;;;;;;;1.67;1.30;;;;;;;4.22;100.00;96515.19;5046857;28;20189;-76
2021/01/24 10:07:41;;;;;;;1.83;1.10;;;;;;;4.24;100.00;96516.59;5041959;28;20207;-75
2021/01/24 10:10:09;;;;;;;5.13;1.83;;;;;;;4.54;100.00;96520.56;5051519;28;20215;-80
2021/01/24 10:12:36;;;;;;;1.63;1.37;;;;;;;4.34;100.00;96521.50;5054542;28;20209;-77
2021/01/24 10:15:03;;;;;;;1.53;1.30;;;;;;;4.06;100.00;96526.06;5051412;28;20219;-84
2021/01/24 10:17:30;;;;;;;1.67;1.07;;;;;;;4.25;100.00;96530.59;5050266;28;20266;-73
2021/01/24 10:19:57;;;;;;;2.90;1.50;;;;;;;4.44;100.00;96533.31;5055701;28;20230;-73
2021/01/24 10:22:25;;;;;;;3.33;1.50;;;;;;;4.68;100.00;96535.41;5055999;28;20210;-76
2021/01/24 10:24:52;;;;;;;1.93;1.27;;;;;;;3.85;100.00;96536.72;5056782;28;20201;-75
2021/01/24 10:27:18;;;;;;;3.00;1.20;;;;;;;4.16;100.00;96529.97;5057263;28;20212;-78
2021/01/24 10:29:45;;;;;;;1.23;1.00;;;;;;;4.24;100.00;96540.38;5053981;28;20292;-79
2021/01/24 10:32:12;;;;;;;2.17;1.30;;;;;;;4.46;100.00;96554.22;5057825;28;20537;-78
2021/01/24 10:34:39;;;;;;;2.00;1.20;;;;;;;4.29;100.00;96545.88;5051295;28;20637;-75
2021/01/24 10:37:06;;;;;;;5.57;1.60;;;;;;;4.30;100.00;96549.31;5061229;28;20202;-82
2021/01/24 10:39:33;;;;;;;1.60;0.90;;;;;;;4.25;100.00;96543.81;5073341;28;20273;-82
2021/01/24 10:42:00;;;;;;;2.10;1.13;;;;;;;4.25;99.74;96547.28;5070102;28;20207;-79
2021/01/24 10:44:27;;;;;;;2.13;0.93;;;;;;;4.39;95.12;96542.84;5062842;28;20220;-77
2021/01/24 10:46:53;;;;;;;2.30;1.23;;;;;;;4.60;97.43;96537.41;5054114;28;20298;-77
2021/01/24 10:49:20;;;;;;;2.40;1.03;;;;;;;4.72;94.63;96538.47;5056403;28;20215;-77
2021/01/24 10:51:47;;;;;;;1.00;0.93;;;;;;;4.86;94.20;96517.16;5058177;28;20206;-80
2021/01/24 10:54:22;;;;;;;3.27;0.73;;;;;;;4.73;87.89;96537.47;5056834;28;20210;-77
2021/01/24 10:56:49;;;;;;;1.37;1.10;;;;;;;4.88;89.00;96523.03;5055714;28;20206;-83
2021/01/24 10:59:16;;;;;;;1.50;0.80;;;;;;;4.88;80.86;96546.03;5058524;28;20245;-79
2021/01/24 11:01:43;;;;;;;1.70;1.17;;;;;;;4.84;79.50;96552.72;5057613;28;20207;-81
2021/01/24 11:04:10;;;;;;;1.33;0.70;;;;;;;4.98;78.02;96559.66;5058374;28;20234;-84
2021/01/24 11:06:37;;;;;;;4.53;0.77;;;;;;;5.13;75.74;96557.66;5059273;28;20200;-81
2021/01/24 11:09:04;;;;;;;1.50;1.10;;;;;;;5.24;78.41;96554.41;5059519;28;20284;-83
2021/01/24 11:11:31;;;;;;;3.53;1.07;;;;;;;5.37;72.47;96551.75;5057592;28;20283;-79
2021/01/24 11:13:58;;;;;;;1.70;0.70;;;;;;;5.54;74.33;96560.91;5060807;28;20192;-82
2021/01/24 11:16:25;;;;;;;0.73;0.73;;;;;;;5.41;75.19;96564.38;5062713;28;20202;-82
2021/01/24 11:18:52;;;;;;;3.00;1.00;;;;;;;5.35;74.19;96561.72;5057567;28;20248;-82
2021/01/24 11:21:19;;;;;;;1.10;0.60;;;;;;;5.40;69.25;96575.97;5063227;28;20211;-82
2021/01/24 11:23:46;;;;;;;0.97;0.80;;;;;;;5.23;69.22;96577.38;5056188;28;20214;-81
2021/01/24 11:26:13;;;;;;;1.00;0.80;;;;;;;5.25;68.37;96583.28;5063781;28;20309;-80
2021/01/24 11:28:40;;;;;;;1.70;0.73;;;;;;;5.15;67.86;96582.88;5061836;28;20237;-81
2021/01/24 11:31:08;;;;;;;3.10;0.90;;;;;;;5.46;67.27;96583.09;5063144;28;20277;-79
2021/01/24 11:33:34;;;;;;;1.53;0.70;;;;;;;5.41;68.79;96580.25;5063712;28;20207;-87
2021/01/24 11:36:01;;;;;;;2.00;0.70;;;;;;;5.75;66.13;96589.78;5065344;28;20265;-80
2021/01/24 11:38:28;;;;;;;2.17;0.60;;;;;;;5.87;66.12;96599.56;5061032;28;20230;-79